createdAt,value
2018-01-12T00:02:20.887Z,61.63
2018-01-12T00:04:49.349Z,84.07
2018-01-12T00:07:17.966Z,52.30
2018-01-12T00:09:46.378Z,61.23
2018-01-12T00:12:14.787Z,67.10
2018-01-12T00:14:44.844Z,83.20
2018-01-12T00:17:13.325Z,77.93
2018-01-12T00:19:41.768Z,49.50
2018-01-12T00:22:10.995Z,58.87
2018-01-12T00:24:39.382Z,51.33
2018-01-12T00:27:07.770Z,61.80
2018-01-12T00:29:36.242Z,56.83
2018-01-12T00:32:04.591Z,58.27
2018-01-12T00:34:32.939Z,57.20
2018-01-12T00:37:01.289Z,56.33
2018-01-12T00:39:29.632Z,58.93
2018-01-12T00:41:58.054Z,57.93
2018-01-12T00:44:26.462Z,80.57
2018-01-12T00:46:55.572Z,70.90
2018-01-12T00:49:23.998Z,61.43
2018-01-12T00:51:52.332Z,64.03
2018-01-12T00:54:21.428Z,65.90
2018-01-12T00:56:49.782Z,57.70
2018-01-12T00:59:18.175Z,74.00
2018-01-12T01:01:46.532Z,54.60
2018-01-12T01:04:14.935Z,62.87
2018-01-12T01:06:43.342Z,76.93
2018-01-12T01:09:11.689Z,67.70
2018-01-12T01:11:40.110Z,81.53
2018-01-12T01:14:08.586Z,75.27
2018-01-12T01:16:36.990Z,72.17
2018-01-12T01:19:05.380Z,102.47
2018-01-12T01:21:33.785Z,67.70
2018-01-12T01:24:02.913Z,82.83
2018-01-12T01:26:31.326Z,65.10
2018-01-12T01:28:59.740Z,72.77
2018-01-12T01:31:28.848Z,71.13
2018-01-12T01:33:57.943Z,68.43
2018-01-12T01:36:26.358Z,69.97
2018-01-12T01:38:54.770Z,82.47
2018-01-12T01:41:23.168Z,77.37
2018-01-12T01:43:51.595Z,66.20
2018-01-12T01:46:20.706Z,66.33
2018-01-12T01:48:49.463Z,60.20
2018-01-12T01:51:17.872Z,57.00
2018-01-12T01:53:46.280Z,64.30
2018-01-12T01:56:14.631Z,71.10
2018-01-12T01:58:42.988Z,57.53
2018-01-12T02:01:11.320Z,65.00
2018-01-12T02:03:39.712Z,65.03
2018-01-12T02:06:08.918Z,51.60
2018-01-12T02:08:38.040Z,65.20
2018-01-12T02:11:06.373Z,63.10
2018-01-12T02:13:35.255Z,66.70
2018-01-12T02:16:03.663Z,64.83
2018-01-12T02:18:32.066Z,69.77
2018-01-12T02:21:00.526Z,172.53
2018-01-12T02:23:28.932Z,138.17
2018-01-12T02:25:57.340Z,88.27
2018-01-12T02:28:25.692Z,92.37
2018-01-12T02:30:54.024Z,97.87
2018-01-12T02:33:22.355Z,83.37
2018-01-12T02:35:50.780Z,81.33
2018-01-12T02:38:19.908Z,100.03
2018-01-12T02:40:48.428Z,98.37
2018-01-12T02:43:16.778Z,86.97
2018-01-12T02:45:45.171Z,90.47
2018-01-12T02:48:13.611Z,97.40
2018-01-12T02:50:41.960Z,85.57
2018-01-12T02:53:10.292Z,93.97
2018-01-12T02:55:38.651Z,75.83
2018-01-12T02:58:07.823Z,87.53
2018-01-12T03:00:36.991Z,94.07
2018-01-12T03:03:05.395Z,91.90
2018-01-12T03:05:33.791Z,72.93
2018-01-12T03:08:02.967Z,87.93
2018-01-12T03:10:31.367Z,78.77
2018-01-12T03:12:59.750Z,72.13
2018-01-12T03:15:28.162Z,91.07
2018-01-12T03:17:56.571Z,79.40
2018-01-12T03:20:25.006Z,88.53
2018-01-12T03:22:53.375Z,88.77
2018-01-12T03:25:21.716Z,84.67
2018-01-12T03:27:50.183Z,77.83
2018-01-12T03:30:18.556Z,76.93
2018-01-12T03:32:46.982Z,79.60
2018-01-12T03:35:16.290Z,92.27
2018-01-12T03:37:44.769Z,89.03
2018-01-12T03:40:14.036Z,91.67
2018-01-12T03:42:42.481Z,97.93
2018-01-12T03:45:10.884Z,79.30
2018-01-12T03:47:39.239Z,87.43
2018-01-12T03:50:07.647Z,69.87
2018-01-12T03:52:36.046Z,70.37
2018-01-12T03:55:04.455Z,59.50
2018-01-12T03:57:32.999Z,78.13
2018-01-12T04:00:01.418Z,68.47
2018-01-12T04:02:29.827Z,67.50
2018-01-12T04:04:58.210Z,69.40
2018-01-12T04:07:26.532Z,78.60
2018-01-12T04:09:54.869Z,62.50
2018-01-12T04:12:23.204Z,77.67
2018-01-12T04:14:52.388Z,65.70
2018-01-12T04:17:21.557Z,70.90
2018-01-12T04:19:49.978Z,65.20
2018-01-12T04:22:18.411Z,63.43
2018-01-12T04:24:46.823Z,68.17
2018-01-12T04:27:15.948Z,73.73
2018-01-12T04:29:44.436Z,60.90
2018-01-12T04:32:12.914Z,68.67
2018-01-12T04:34:41.379Z,59.00
2018-01-12T04:37:09.789Z,67.87
2018-01-12T04:39:38.269Z,66.83
2018-01-12T04:42:06.668Z,65.57
2018-01-12T04:44:35.262Z,63.30
2018-01-12T04:47:03.759Z,66.33
2018-01-12T04:49:32.296Z,60.00
2018-01-12T04:52:01.491Z,54.60
2018-01-12T04:54:29.933Z,52.00
2018-01-12T04:56:58.498Z,60.47
2018-01-12T04:59:27.020Z,67.83
2018-01-12T05:01:55.570Z,67.13
2018-01-12T05:04:24.121Z,75.03
2018-01-12T05:06:52.667Z,80.00
2018-01-12T05:09:21.329Z,76.53
2018-01-12T05:11:50.568Z,69.97
2018-01-12T05:14:19.093Z,66.57
2018-01-12T05:16:47.679Z,74.37
2018-01-12T05:19:16.453Z,89.13
2018-01-12T05:21:45.208Z,87.97
2018-01-12T05:24:13.694Z,89.30
2018-01-12T05:26:42.308Z,89.60
2018-01-12T05:29:10.663Z,103.17
2018-01-12T05:31:39.045Z,94.83
2018-01-12T05:34:07.570Z,101.50
2018-01-12T05:36:36.804Z,113.83
2018-01-12T05:39:05.336Z,110.40
2018-01-12T05:41:33.831Z,117.20
2018-01-12T05:44:02.209Z,134.00
2018-01-12T05:46:30.948Z,134.53
2018-01-12T05:48:59.418Z,143.20
2018-01-12T05:51:27.833Z,128.37
2018-01-12T05:53:56.321Z,154.80
2018-01-12T05:56:24.760Z,159.67
2018-01-12T05:58:53.250Z,137.40
2018-01-12T06:01:39.194Z,134.00
2018-01-12T06:04:25.175Z,144.97
2018-01-12T06:06:53.582Z,140.83
2018-01-12T06:09:21.979Z,138.27
2018-01-12T06:11:50.382Z,142.63
2018-01-12T06:14:18.794Z,142.20
2018-01-12T06:16:47.159Z,131.97
2018-01-12T06:19:15.592Z,132.93
2018-01-12T06:21:43.989Z,127.60
2018-01-12T06:24:12.329Z,115.47
2018-01-12T06:26:41.514Z,130.00
2018-01-12T06:29:10.620Z,126.10
2018-01-12T06:31:39.791Z,127.13
2018-01-12T06:34:08.206Z,94.33
2018-01-12T06:36:37.386Z,99.03
2018-01-12T06:39:05.764Z,77.97
2018-01-12T06:41:34.105Z,75.40
2018-01-12T06:44:02.500Z,56.70
2018-01-12T06:46:30.855Z,59.53
2018-01-12T06:48:59.265Z,55.97
2018-01-12T06:51:27.673Z,53.27
2018-01-12T06:53:56.886Z,51.40
2018-01-12T06:56:25.287Z,43.97
2018-01-12T06:58:53.620Z,40.17
2018-01-12T07:01:22.741Z,50.57
2018-01-12T07:03:51.123Z,45.20
2018-01-12T07:06:19.560Z,44.30
2018-01-12T07:08:47.915Z,45.20
2018-01-12T07:11:16.301Z,36.50
2018-01-12T07:13:44.634Z,40.80
2018-01-12T07:16:12.997Z,44.37
2018-01-12T07:18:42.100Z,36.53
2018-01-12T07:21:28.083Z,34.03
2018-01-12T07:23:56.417Z,44.17
2018-01-12T07:26:24.740Z,38.23
2018-01-12T07:28:53.170Z,40.33
2018-01-12T07:31:21.504Z,32.07
2018-01-12T07:33:49.824Z,39.33
2018-01-12T07:36:18.230Z,34.07
2018-01-12T07:38:46.651Z,41.83
2018-01-12T07:41:15.156Z,41.43
2018-01-12T07:43:43.578Z,40.30
2018-01-12T07:46:12.742Z,43.53
2018-01-12T07:48:41.171Z,44.67
2018-01-12T07:51:10.343Z,46.30
2018-01-12T07:53:38.740Z,52.80
2018-01-12T07:56:07.959Z,45.87
2018-01-12T07:58:37.167Z,56.50
2018-01-12T08:01:10.978Z,49.53
2018-01-12T08:03:39.382Z,46.63
2018-01-12T08:06:07.736Z,47.50
2018-01-12T08:08:36.072Z,47.47
2018-01-12T08:11:04.462Z,44.20
2018-01-12T08:13:33.592Z,47.90
2018-01-12T08:16:01.945Z,56.87
2018-01-12T08:18:31.047Z,55.10
2018-01-12T08:21:00.157Z,46.90
2018-01-12T08:23:28.479Z,57.40
2018-01-12T08:25:56.814Z,57.30
2018-01-12T08:28:25.190Z,56.90
2018-01-12T08:30:53.578Z,72.90
2018-01-12T08:33:21.912Z,67.23
2018-01-12T08:35:50.311Z,52.70
2018-01-12T08:38:19.048Z,55.97
2018-01-12T08:40:47.452Z,55.80
2018-01-12T08:43:16.590Z,57.90
2018-01-12T08:45:44.981Z,59.10
2018-01-12T08:48:13.390Z,59.20
2018-01-12T08:50:41.760Z,75.33
2018-01-12T08:53:10.145Z,74.30
2018-01-12T08:55:38.547Z,83.17
2018-01-12T08:58:08.527Z,69.60
2018-01-12T09:00:36.851Z,69.77
2018-01-12T09:03:06.007Z,74.50
2018-01-12T09:05:34.428Z,74.17
2018-01-12T09:08:02.802Z,73.83
2018-01-12T09:10:31.941Z,69.20
2018-01-12T09:13:01.098Z,76.20
2018-01-12T09:15:30.204Z,63.27
2018-01-12T09:18:01.218Z,85.17
2018-01-12T09:20:35.852Z,89.07
2018-01-12T09:26:09.614Z,80.53
2018-01-12T09:28:38.805Z,99.83
2018-01-12T09:31:07.971Z,116.40
2018-01-12T09:33:36.380Z,109.00
2018-01-12T09:36:05.548Z,112.33
2018-01-12T09:38:45.870Z,153.13
2018-01-12T09:41:14.203Z,85.27
2018-01-12T09:43:42.541Z,130.07
2018-01-12T09:46:10.951Z,87.80
2018-01-12T09:48:39.299Z,102.63
2018-01-12T09:51:07.629Z,105.03
2018-01-12T09:53:36.824Z,120.43
2018-01-12T09:56:06.004Z,91.20
2018-01-12T09:58:34.375Z,146.47
2018-01-12T10:01:03.581Z,202.10
2018-01-12T10:03:31.935Z,102.67
2018-01-12T10:06:00.443Z,77.70
2018-01-12T10:08:28.777Z,94.63
2018-01-12T10:10:57.095Z,118.67
2018-01-12T10:13:25.516Z,165.63
2018-01-12T10:15:53.907Z,70.67
2018-01-12T10:18:34.969Z,75.87
2018-01-12T10:21:13.088Z,72.10
2018-01-12T10:23:41.461Z,95.70
2018-01-12T10:26:09.856Z,81.03
2018-01-12T10:28:55.908Z,84.07
2018-01-12T10:34:45.294Z,89.40
2018-01-12T10:37:14.436Z,77.03
2018-01-12T10:39:59.092Z,95.97
2018-01-12T10:42:27.512Z,87.90
2018-01-12T10:44:55.864Z,71.03
2018-01-12T10:47:26.902Z,74.80
2018-01-12T10:53:11.530Z,73.27
2018-01-12T10:55:39.934Z,82.73
2018-01-12T10:58:08.303Z,65.10
2018-01-12T11:00:36.704Z,85.60
2018-01-12T11:03:05.043Z,72.40
2018-01-12T11:05:34.226Z,83.20
2018-01-12T11:08:02.638Z,86.53
2018-01-12T11:10:30.978Z,73.30
2018-01-12T11:12:59.402Z,71.60
2018-01-12T11:15:27.836Z,77.13
2018-01-12T11:17:56.943Z,88.80
2018-01-12T11:20:26.120Z,74.33
2018-01-12T11:22:54.520Z,70.77
2018-01-12T11:25:23.627Z,74.57
2018-01-12T11:27:51.984Z,70.07
2018-01-12T11:30:20.343Z,74.10
2018-01-12T11:32:48.679Z,73.80
2018-01-12T11:35:17.118Z,71.43
2018-01-12T11:37:46.260Z,76.43
2018-01-12T11:40:14.574Z,76.30
2018-01-12T11:42:42.958Z,76.90
2018-01-12T11:45:11.296Z,73.03
2018-01-12T11:47:39.622Z,72.37
2018-01-12T11:50:07.984Z,72.37
2018-01-12T11:52:36.386Z,86.73
2018-01-12T11:55:05.554Z,74.63
2018-01-12T11:57:33.988Z,79.57
2018-01-12T12:00:02.405Z,79.57
2018-01-12T12:02:30.803Z,90.30
2018-01-12T12:04:59.227Z,83.47
2018-01-12T12:07:27.655Z,98.13
2018-01-12T12:09:56.264Z,105.90
2018-01-12T12:12:24.698Z,103.90
2018-01-12T12:14:53.028Z,92.63
2018-01-12T12:17:21.379Z,93.07
2018-01-12T12:19:49.767Z,103.53
2018-01-12T12:22:18.169Z,101.97
2018-01-12T12:24:46.534Z,108.47
2018-01-12T12:27:14.922Z,96.27
2018-01-12T12:29:43.254Z,98.13
2018-01-12T12:32:12.365Z,97.90
2018-01-12T12:34:40.754Z,90.93
2018-01-12T12:37:09.868Z,91.20
2018-01-12T12:39:39.062Z,100.70
2018-01-12T12:42:08.244Z,89.10
2018-01-12T12:44:36.662Z,87.13
2018-01-12T12:47:05.052Z,86.07
2018-01-12T12:49:33.390Z,79.07
2018-01-12T12:52:02.612Z,86.37
2018-01-12T12:54:30.952Z,98.83
2018-01-12T12:57:00.072Z,89.20
2018-01-12T12:59:29.254Z,98.30
2018-01-12T13:01:58.447Z,97.10
2018-01-12T13:04:27.615Z,97.13
2018-01-12T13:06:56.035Z,97.47
2018-01-12T13:09:25.207Z,114.97
2018-01-12T13:11:53.567Z,93.37
2018-01-12T13:14:21.930Z,97.07
2018-01-12T13:16:50.246Z,102.20
2018-01-12T13:19:18.650Z,100.50
2018-01-12T13:21:47.875Z,107.80
2018-01-12T13:24:16.282Z,92.77
2018-01-12T13:26:44.621Z,101.47
2018-01-12T13:29:13.043Z,108.27
2018-01-12T13:31:41.451Z,106.93
2018-01-12T13:34:10.634Z,112.80
2018-01-12T13:36:39.055Z,109.17
2018-01-12T13:39:07.477Z,112.10
2018-01-12T13:41:35.870Z,126.80
2018-01-12T13:44:04.216Z,129.93
2018-01-12T13:46:32.573Z,130.37
2018-01-12T13:49:00.948Z,147.00
2018-01-12T13:51:29.282Z,143.23
2018-01-12T13:53:57.716Z,137.97
2018-01-12T13:56:26.169Z,139.30
2018-01-12T13:58:54.571Z,146.03
2018-01-12T14:01:22.970Z,131.33
2018-01-12T14:03:52.092Z,132.63
2018-01-12T14:06:20.412Z,127.67
2018-01-12T14:08:48.842Z,138.50
2018-01-12T14:11:17.293Z,136.13
2018-01-12T14:13:45.701Z,139.97
2018-01-12T14:16:14.104Z,141.60
2018-01-12T14:18:43.243Z,136.50
2018-01-12T14:21:11.644Z,138.40
2018-01-12T14:23:40.059Z,145.10
2018-01-12T14:26:09.315Z,144.13
2018-01-12T14:28:37.745Z,143.90
2018-01-12T14:31:06.848Z,153.47
2018-01-12T14:33:36.013Z,147.03
2018-01-12T14:36:04.419Z,146.63
2018-01-12T14:38:32.767Z,144.57
2018-01-12T14:41:01.137Z,142.27
2018-01-12T14:43:29.488Z,143.70
2018-01-12T14:45:57.866Z,150.13
2018-01-12T14:48:26.222Z,163.37
2018-01-12T14:50:54.620Z,150.77
2018-01-12T14:53:22.948Z,134.60
2018-01-12T14:55:51.301Z,155.27
2018-01-12T14:58:19.888Z,134.33
2018-01-12T15:00:48.372Z,123.47
2018-01-12T15:03:16.884Z,122.63
2018-01-12T15:05:45.338Z,114.30
2018-01-12T15:08:13.798Z,110.33
2018-01-12T15:10:42.271Z,114.30
2018-01-12T15:13:10.893Z,116.73
2018-01-12T15:15:39.299Z,106.80
2018-01-12T15:18:07.824Z,117.97
2018-01-12T15:20:36.178Z,101.97
2018-01-12T15:23:04.538Z,112.03
2018-01-12T15:25:32.868Z,113.97
2018-01-12T15:28:01.196Z,114.03
2018-01-12T15:30:29.606Z,103.37
2018-01-12T15:32:58.058Z,116.37
2018-01-12T15:35:26.430Z,110.13
2018-01-12T15:37:54.767Z,123.00
2018-01-12T15:40:23.174Z,111.60
2018-01-12T15:42:52.416Z,108.60
2018-01-12T15:45:20.842Z,106.93
2018-01-12T15:47:49.223Z,109.17
2018-01-12T15:50:18.324Z,105.43
2018-01-12T15:52:47.491Z,100.07
2018-01-12T15:55:15.928Z,125.93
2018-01-12T15:57:45.118Z,131.20
2018-01-12T16:00:13.530Z,124.07
2018-01-12T16:02:42.655Z,139.67
2018-01-12T16:05:11.027Z,117.60
2018-01-12T16:07:39.479Z,122.40
2018-01-12T16:10:07.898Z,117.60
2018-01-12T16:12:37.067Z,120.07
2018-01-12T16:15:05.393Z,116.97
2018-01-12T16:17:33.804Z,105.23
2018-01-12T16:20:02.272Z,117.67
2018-01-12T16:22:30.639Z,119.73
2018-01-12T16:24:59.041Z,106.23
2018-01-12T16:27:27.402Z,119.20
2018-01-12T16:29:55.838Z,99.73
2018-01-12T16:32:24.255Z,116.90
2018-01-12T16:34:52.694Z,109.17
2018-01-12T16:37:21.138Z,103.00
2018-01-12T16:39:49.558Z,95.13
2018-01-12T16:42:18.695Z,102.23
2018-01-12T16:44:47.135Z,104.17
2018-01-12T16:47:15.538Z,99.57
2018-01-12T16:49:43.951Z,97.57
2018-01-12T16:52:12.353Z,110.07
2018-01-12T16:54:40.680Z,107.90
2018-01-12T16:57:09.032Z,96.77
2018-01-12T16:59:37.601Z,101.17
2018-01-12T17:02:05.944Z,107.60
2018-01-12T17:04:34.339Z,109.00
2018-01-12T17:07:02.893Z,110.87
2018-01-12T17:09:31.313Z,104.73
2018-01-12T17:11:59.750Z,109.17
2018-01-12T17:14:28.115Z,112.23
2018-01-12T17:16:57.218Z,112.30
2018-01-12T17:19:25.776Z,100.13
2018-01-12T17:21:54.891Z,108.50
2018-01-12T17:24:23.227Z,123.03
2018-01-12T17:26:51.778Z,105.83
2018-01-12T17:29:20.180Z,103.03
2018-01-12T17:31:48.513Z,118.90
2018-01-12T17:34:17.223Z,100.27
2018-01-12T17:36:45.556Z,109.03
2018-01-12T17:39:14.714Z,92.53
2018-01-12T17:41:43.138Z,105.23
2018-01-12T17:44:11.472Z,92.13
2018-01-12T17:46:39.806Z,98.10
2018-01-12T17:49:08.428Z,100.63
2018-01-12T17:51:36.846Z,97.93
2018-01-12T17:54:05.209Z,89.90
2018-01-12T17:56:33.549Z,95.67
2018-01-12T17:59:01.955Z,102.20
2018-01-12T18:01:30.428Z,92.83
2018-01-12T18:03:58.839Z,97.33
2018-01-12T18:06:27.263Z,89.13
2018-01-12T18:08:55.637Z,97.73
2018-01-12T18:11:24.034Z,98.90
2018-01-12T18:13:52.459Z,92.70
2018-01-12T18:16:20.876Z,94.53
2018-01-12T18:18:49.298Z,100.57
2018-01-12T18:21:17.640Z,93.27
2018-01-12T18:23:45.995Z,98.50
2018-01-12T18:26:14.425Z,95.83
2018-01-12T18:28:42.765Z,114.07
2018-01-12T18:31:11.104Z,106.50
2018-01-12T18:33:40.279Z,106.33
2018-01-12T18:36:08.623Z,102.03
2018-01-12T18:38:36.967Z,99.57
2018-01-12T18:41:05.399Z,103.90
2018-01-12T18:43:33.777Z,108.87
2018-01-12T18:46:02.191Z,96.87
2018-01-12T18:48:31.410Z,98.03
2018-01-12T18:50:59.771Z,103.80
2018-01-12T18:53:28.950Z,93.73
2018-01-12T18:55:58.156Z,96.13
2018-01-12T18:58:27.290Z,98.17
2018-01-12T19:00:55.690Z,100.50
2018-01-12T19:03:24.141Z,102.67
2018-01-12T19:05:52.519Z,93.73
2018-01-12T19:08:20.917Z,101.17
2018-01-12T19:10:49.481Z,108.63
2018-01-12T19:13:17.815Z,107.80
2018-01-12T19:15:46.157Z,98.40
2018-01-12T19:18:14.504Z,107.53
2018-01-12T19:20:42.827Z,95.67
2018-01-12T19:23:11.209Z,111.17
2018-01-12T19:25:39.603Z,103.70
2018-01-12T19:28:07.986Z,101.67
2018-01-12T19:30:37.156Z,101.30
2018-01-12T19:33:05.594Z,93.73
2018-01-12T19:35:33.998Z,91.23
2018-01-12T19:38:02.400Z,103.83
2018-01-12T19:40:30.839Z,94.43
2018-01-12T19:42:59.416Z,103.93
2018-01-12T19:45:27.792Z,94.37
2018-01-12T19:47:56.151Z,94.23
2018-01-12T19:50:25.341Z,94.33
2018-01-12T19:52:54.534Z,99.00
2018-01-12T19:55:23.709Z,100.03
2018-01-12T19:57:52.065Z,97.97
2018-01-12T20:00:20.414Z,88.30
2018-01-12T20:02:49.520Z,94.23
2018-01-12T20:05:17.910Z,104.77
2018-01-12T20:07:46.455Z,105.70
2018-01-12T20:10:15.552Z,107.90
2018-01-12T20:12:44.657Z,115.00
2018-01-12T20:15:13.855Z,101.03
2018-01-12T20:17:42.967Z,90.33
2018-01-12T20:20:11.295Z,87.17
2018-01-12T20:22:39.707Z,89.43
2018-01-12T20:25:08.063Z,98.27
2018-01-12T20:27:36.615Z,90.53
2018-01-12T20:30:05.054Z,92.40
2018-01-12T20:32:33.541Z,96.03
2018-01-12T20:35:02.094Z,101.10
2018-01-12T20:37:30.544Z,82.20
2018-01-12T20:39:59.736Z,91.90
2018-01-12T20:42:28.739Z,95.63
2018-01-12T20:44:57.323Z,87.83
2018-01-12T20:47:25.744Z,95.50
2018-01-12T20:49:54.113Z,88.70
2018-01-12T20:52:22.539Z,88.73
2018-01-12T20:54:51.747Z,78.83
2018-01-12T20:57:20.201Z,91.33
2018-01-12T20:59:48.758Z,86.30
2018-01-12T21:02:17.179Z,83.60
2018-01-12T21:04:45.538Z,94.93
2018-01-12T21:07:13.968Z,92.47
2018-01-12T21:09:42.432Z,90.23
2018-01-12T21:12:10.807Z,82.80
2018-01-12T21:14:39.167Z,89.50
2018-01-12T21:17:07.664Z,107.50
2018-01-12T21:19:36.225Z,84.30
2018-01-12T21:22:04.601Z,92.40
2018-01-12T21:24:32.947Z,92.93
2018-01-12T21:27:02.234Z,98.70
2018-01-12T21:29:30.628Z,99.27
2018-01-12T21:31:59.067Z,98.50
2018-01-12T21:34:27.468Z,95.80
2018-01-12T21:36:55.796Z,94.60
2018-01-12T21:39:26.486Z,103.53
2018-01-12T21:41:54.907Z,99.87
2018-01-12T21:44:23.330Z,104.47
2018-01-12T21:46:51.755Z,109.67
2018-01-12T21:49:20.183Z,103.50
2018-01-12T21:51:48.648Z,120.47
2018-01-12T21:54:17.011Z,112.20
2018-01-12T21:56:45.422Z,98.87
2018-01-12T21:59:13.909Z,110.10
2018-01-12T22:01:42.275Z,108.63
2018-01-12T22:04:10.778Z,118.13
2018-01-12T22:06:39.879Z,110.00
2018-01-12T22:09:08.282Z,113.83
2018-01-12T22:11:36.710Z,109.60
2018-01-12T22:14:05.166Z,121.93
2018-01-12T22:16:33.594Z,114.50
2018-01-12T22:19:02.690Z,117.67
2018-01-12T22:21:31.881Z,105.43
2018-01-12T22:24:00.274Z,130.20
2018-01-12T22:26:29.480Z,134.93
2018-01-12T22:28:58.734Z,129.20
2018-01-12T22:31:27.136Z,113.20
2018-01-12T22:33:55.494Z,114.63
2018-01-12T22:36:23.835Z,101.80
2018-01-12T22:38:52.159Z,113.40
2018-01-12T22:41:20.614Z,117.93
2018-01-12T22:43:48.951Z,93.70
2018-01-12T22:46:17.297Z,106.93
2018-01-12T22:48:45.685Z,113.00
2018-01-12T22:51:14.881Z,115.07
2018-01-12T22:53:44.000Z,106.00
2018-01-12T22:56:12.425Z,106.57
2018-01-12T22:58:40.766Z,112.20
2018-01-12T23:01:09.192Z,113.73
2018-01-12T23:03:37.670Z,99.20
2018-01-12T23:06:06.095Z,107.60
2018-01-12T23:08:34.456Z,105.83
2018-01-12T23:11:03.577Z,105.27
2018-01-12T23:13:31.947Z,105.40
2018-01-12T23:16:00.340Z,104.83
2018-01-12T23:18:28.795Z,107.77
2018-01-12T23:20:57.930Z,102.77
2018-01-12T23:23:26.265Z,103.83
2018-01-12T23:25:55.353Z,115.50
2018-01-12T23:28:24.533Z,110.67
2018-01-12T23:30:52.964Z,110.27
2018-01-12T23:33:21.369Z,107.53
2018-01-12T23:35:49.811Z,114.00
2018-01-12T23:38:18.252Z,99.80
2018-01-12T23:40:46.592Z,111.33
2018-01-12T23:43:14.949Z,115.43
2018-01-12T23:45:43.271Z,119.87
2018-01-12T23:48:11.619Z,123.57
2018-01-12T23:50:40.026Z,122.47
2018-01-12T23:53:08.359Z,135.80
2018-01-12T23:55:36.742Z,148.10
2018-01-12T23:58:05.140Z,125.37
